Time;durP1;ratioP1;P1;durP2;ratioP2;P2;SDS_P1;SDS_P2;PMS_P1;PMS_P2;Temp;Humidity;BMP_temperature;BMP_pressure;BME280_temperature;BME280_humidity;BME280_pressure;Samples;Min_cycle;Max_cycle;Signal;HPM_P1;HPM_P2
2023/02/13 00:00:28;;;;;;;77.38;46.35;;;;;;;1.88;66.88;100433.88;5091585;28;20138;-47
2023/02/13 00:03:05;;;;;;;82.97;47.50;;;;;;;2.05;66.13;100430.16;5092818;28;20081;-48
2023/02/13 00:05:51;;;;;;;84.05;46.70;;;;;;;1.91;65.40;100441.44;5091459;28;20028;-47
2023/02/13 00:08:29;;;;;;;76.00;44.22;;;;;;;1.89;65.84;100435.53;5092803;28;20378;-47
2023/02/13 00:10:57;;;;;;;81.57;49.40;;;;;;;1.79;65.66;100434.47;5092622;28;20028;-46
2023/02/13 00:13:24;;;;;;;81.47;49.88;;;;;;;1.49;65.75;100434.69;5092804;28;20028;-47
2023/02/13 00:15:59;;;;;;;87.97;54.63;;;;;;;1.34;66.50;100431.34;5091209;28;20497;-47
2023/02/13 00:18:27;;;;;;;90.07;53.70;;;;;;;1.19;67.50;100430.56;5092594;28;20393;-46
2023/02/13 00:21:11;;;;;;;79.50;48.05;;;;;;;1.22;68.73;100434.72;5092522;28;20031;-46
2023/02/13 00:23:39;;;;;;;80.20;45.65;;;;;;;1.37;68.63;100429.41;5091200;28;20383;-46
2023/02/13 00:26:29;;;;;;;73.13;46.60;;;;;;;1.62;67.80;100434.75;5091137;28;20077;-47
2023/02/13 00:29:02;;;;;;;87.43;52.95;;;;;;;1.83;67.19;100435.09;5092440;28;20081;-48
2023/02/13 00:31:31;;;;;;;84.57;56.28;;;;;;;1.78;67.02;100431.06;5090936;28;20024;-48
2023/02/13 00:33:57;;;;;;;86.85;54.75;;;;;;;1.72;67.23;100434.03;5092279;28;20020;-47
2023/02/13 00:36:32;;;;;;;79.50;45.65;;;;;;;1.63;67.18;100432.06;5090912;28;20024;-48
2023/02/13 00:38:58;;;;;;;79.55;41.85;;;;;;;1.71;67.26;100426.38;5071240;28;20086;-46
2023/02/13 00:41:25;;;;;;;79.05;44.40;;;;;;;1.72;67.18;100428.88;5090873;28;20035;-46
2023/02/13 00:43:52;;;;;;;75.70;44.10;;;;;;;1.86;67.14;100433.13;5090807;28;20031;-46
2023/02/13 00:46:19;;;;;;;72.95;41.03;;;;;;;1.98;66.63;100423.75;5092056;28;20050;-46
2023/02/13 00:48:46;;;;;;;76.18;40.33;;;;;;;1.98;66.23;100434.09;5092095;28;20024;-47
2023/02/13 00:51:13;;;;;;;77.85;44.45;;;;;;;1.95;65.85;100434.28;5092041;28;20440;-46
2023/02/13 00:53:40;;;;;;;76.25;48.08;;;;;;;1.94;66.53;100430.06;5091987;28;20028;-47
2023/02/13 00:56:08;;;;;;;79.97;50.08;;;;;;;1.91;66.07;100432.84;5090629;28;20024;-46
2023/02/13 00:58:35;;;;;;;85.95;52.55;;;;;;;1.78;66.74;100428.47;5090645;28;20028;-46
2023/02/13 01:01:02;;;;;;;82.90;53.65;;;;;;;1.73;66.86;100429.69;5091956;28;20032;-46
2023/02/13 01:03:29;;;;;;;83.25;50.85;;;;;;;1.58;66.88;100431.53;5090603;28;20059;-46
2023/02/13 01:05:57;;;;;;;83.43;54.75;;;;;;;1.45;67.53;100431.50;5091903;28;20123;-46
2023/02/13 01:08:26;;;;;;;86.38;52.17;;;;;;;1.29;67.98;100431.66;5091841;28;20050;-46
2023/02/13 01:10:59;;;;;;;91.55;52.88;;;;;;;1.24;67.99;100441.44;5091798;28;20036;-46
2023/02/13 01:13:26;;;;;;;82.20;49.03;;;;;;;1.33;68.56;100438.28;5091810;28;20054;-47
2023/02/13 01:15:53;;;;;;;77.47;43.70;;;;;;;1.52;67.57;100440.50;5090516;28;20048;-46
2023/02/13 01:18:20;;;;;;;77.80;41.63;;;;;;;1.47;67.50;100441.72;5090458;28;20024;-46
2023/02/13 01:20:59;;;;;;;84.28;48.80;;;;;;;1.36;67.23;100451.00;5091716;28;20028;-46
2023/02/13 01:23:36;;;;;;;175.80;102.85;;;;;;;1.24;67.37;100450.97;5090481;28;20409;-46
2023/02/13 01:26:05;;;;;;;123.90;72.57;;;;;;;1.14;67.97;100451.53;5090424;28;20039;-46
2023/02/13 01:28:32;;;;;;;89.70;53.85;;;;;;;1.03;68.12;100450.53;5090410;28;20409;-46
2023/02/13 01:30:59;;;;;;;86.18;50.70;;;;;;;0.98;67.89;100464.56;5090572;28;20028;-46
2023/02/13 01:33:48;;;;;;;84.75;50.20;;;;;;;0.91;67.93;100460.72;5090551;28;20020;-46
2023/02/13 01:36:30;;;;;;;83.35;47.13;;;;;;;0.92;68.19;100459.78;5090222;28;20115;-47
2023/02/13 01:39:15;;;;;;;74.03;43.20;;;;;;;0.92;68.00;100458.97;5089209;28;20414;-46
2023/02/13 01:41:41;;;;;;;79.03;47.70;;;;;;;0.94;67.90;100459.69;5090193;28;20467;-46
2023/02/13 01:47:53;;;;;;;79.43;47.47;;;;;;;0.98;68.63;100461.16;5091351;28;20121;-46
2023/02/13 01:51:00;;;;;;;79.47;49.30;;;;;;;0.96;68.38;100463.84;5091548;28;20167;-47
2023/02/13 01:54:17;;;;;;;78.97;47.23;;;;;;;0.92;69.00;100462.38;5091510;28;20055;-46
2023/02/13 02:00:22;;;;;;;74.63;42.47;;;;;;;0.94;68.28;100465.69;5092186;28;20046;-48
2023/02/13 02:03:26;;;;;;;76.22;42.42;;;;;;;0.99;68.90;100466.25;5095219;28;20073;-47
2023/02/13 02:06:01;;;;;;;80.05;44.10;;;;;;;1.03;68.73;100463.47;5094814;28;20039;-47
2023/02/13 02:08:38;;;;;;;78.63;47.72;;;;;;;1.03;68.88;100450.53;5093818;28;20020;-48
2023/02/13 02:12:03;;;;;;;72.03;45.25;;;;;;;1.07;68.35;100452.03;5094937;28;20074;-47
2023/02/13 02:14:43;;;;;;;78.70;47.42;;;;;;;1.04;67.85;100457.38;5094977;28;20363;-48
2023/02/13 02:17:16;;;;;;;84.53;49.97;;;;;;;0.94;68.13;100451.94;5093553;28;20035;-46
2023/02/13 02:20:28;;;;;;;84.43;48.85;;;;;;;0.86;68.08;100460.16;5093525;28;20749;-48
2023/02/13 02:23:35;;;;;;;79.25;48.33;;;;;;;0.84;68.59;100458.59;5095040;28;20089;-48
2023/02/13 02:26:13;;;;;;;;;;;;;;;0.77;69.42;100447.81;5095202;28;20030;-48
2023/02/13 02:29:22;;;;;;;74.10;44.30;;;;;;;0.73;68.92;100454.09;5093433;28;19916;-48
2023/02/13 02:32:18;;;;;;;66.65;41.35;;;;;;;0.65;69.75;100454.56;5094552;28;20027;-47
2023/02/13 02:35:21;;;;;;;72.07;42.55;;;;;;;0.56;69.16;100450.78;5094660;28;20027;-47
2023/02/13 02:38:33;;;;;;;70.05;39.95;;;;;;;0.63;69.84;100453.81;5093208;28;20527;-47
2023/02/13 02:41:45;;;;;;;71.47;42.72;;;;;;;0.76;69.39;100453.91;5072905;28;20068;-48
2023/02/13 02:45:00;;;;;;;75.72;44.28;;;;;;;0.89;69.47;100454.81;5074341;28;20039;-46
2023/02/13 02:50:50;;;;;;;75.75;42.38;;;;;;;0.96;68.94;100452.69;5060729;28;20458;-48
2023/02/13 02:53:40;;;;;;;71.90;40.78;;;;;;;1.03;68.73;100451.38;5072639;28;20024;-47
2023/02/13 02:56:45;;;;;;;77.20;43.63;;;;;;;1.11;67.85;100450.91;5072685;28;20036;-48
2023/02/13 03:14:19;;;;;;;74.47;45.10;;;;;;;1.04;67.84;100440.09;5074202;28;20035;-46
2023/02/13 03:23:59;;;;;;;77.03;47.25;;;;;;;1.07;68.24;100441.69;5073951;28;20413;-48
2023/02/13 03:31:10;;;;;;;82.88;45.65;;;;;;;1.15;67.74;100431.69;5051346;28;20064;-47
2023/02/13 03:34:15;;;;;;;73.07;42.50;;;;;;;1.24;67.76;100436.25;5011216;28;20519;-48
2023/02/13 03:44:26;;;;;;;97.18;63.92;;;;;;;1.23;67.54;100444.13;5010880;28;20589;-47
2023/02/13 03:47:14;;;;;;;82.63;49.10;;;;;;;1.28;67.73;100439.50;5010955;28;20050;-47
2023/02/13 03:53:14;;;;;;;99.15;50.40;;;;;;;1.35;67.81;100440.78;5010964;28;20033;-47
2023/02/13 04:02:30;;;;;;;87.20;49.83;;;;;;;1.16;68.35;100447.09;5030650;28;20045;-48
2023/02/13 04:05:36;;;;;;;87.65;50.08;;;;;;;1.26;68.15;100444.75;5030480;28;20119;-48
2023/02/13 04:08:03;;;;;;;78.82;49.42;;;;;;;1.33;67.96;100447.81;5034803;28;20033;-46
2023/02/13 04:11:16;;;;;;;78.38;50.13;;;;;;;1.36;68.92;100442.41;5051175;28;20032;-47
2023/02/13 04:14:06;;;;;;;91.25;48.38;;;;;;;1.39;68.55;100440.47;5052333;28;20098;-48
2023/02/13 04:17:39;;;;;;;83.03;47.72;;;;;;;1.51;68.52;100449.22;5052239;28;20035;-46
2023/02/13 04:20:27;;;;;;;89.00;48.53;;;;;;;1.63;68.27;100442.44;5051359;28;20044;-46
2023/02/13 04:23:16;;;;;;;79.18;47.00;;;;;;;1.71;68.38;100441.91;5050656;28;20028;-47
2023/02/13 04:25:59;;;;;;;88.85;49.20;;;;;;;1.71;68.43;100447.06;5052208;28;20109;-47
2023/02/13 04:28:31;;;;;;;73.78;46.78;;;;;;;1.79;68.17;100447.41;5051140;28;20125;-46
2023/02/13 04:33:42;;;;;;;75.28;43.05;;;;;;;2.01;67.66;100449.41;5052019;28;20560;-46
2023/02/13 04:36:18;;;;;;;71.47;42.38;;;;;;;2.00;67.64;100455.53;5050383;28;20414;-48
2023/02/13 04:39:02;;;;;;;76.50;45.13;;;;;;;2.02;67.23;100452.84;5054080;28;20395;-47
2023/02/13 04:41:42;;;;;;;79.88;46.53;;;;;;;1.99;67.29;100454.72;5090940;28;20093;-47
2023/02/13 04:44:26;;;;;;;74.90;44.42;;;;;;;1.90;66.97;100455.31;5090908;28;20043;-47
2023/02/13 04:47:03;;;;;;;78.70;48.50;;;;;;;1.88;67.08;100452.00;5092083;28;20020;-48
2023/02/13 04:49:52;;;;;;;82.47;48.55;;;;;;;1.92;67.64;100455.22;5092143;28;20035;-47
2023/02/13 04:52:39;;;;;;;86.13;50.72;;;;;;;2.02;67.95;100458.84;5091937;28;20093;-47
2023/02/13 04:55:25;;;;;;;74.97;44.55;;;;;;;2.05;67.62;100456.03;5090993;28;20036;-47
2023/02/13 04:58:05;;;;;;;84.07;42.95;;;;;;;1.97;67.22;100455.72;5090659;28;20115;-48
2023/02/13 05:00:48;;;;;;;71.03;40.85;;;;;;;1.92;67.32;100450.84;5091961;28;20024;-47
2023/02/13 05:03:27;;;;;;;62.67;37.80;;;;;;;1.87;67.18;100447.75;5091914;28;20519;-48
2023/02/13 05:06:02;;;;;;;72.43;42.53;;;;;;;1.78;66.85;100450.94;5090521;28;20449;-47
2023/02/13 05:08:34;;;;;;;80.20;47.05;;;;;;;1.73;67.23;100453.84;5091891;28;20026;-47
2023/02/13 05:11:06;;;;;;;70.20;43.88;;;;;;;1.77;67.72;100447.53;5090420;28;20044;-46
2023/02/13 05:13:41;;;;;;;84.43;57.00;;;;;;;1.78;67.73;100451.75;5091707;28;20035;-46
2023/02/13 05:16:10;;;;;;;64.57;39.30;;;;;;;1.87;67.17;100458.13;5091785;28;20115;-47
2023/02/13 05:18:36;;;;;;;57.50;37.75;;;;;;;1.83;66.84;100450.63;5090450;28;20020;-46
2023/02/13 05:24:11;;;;;;;83.78;50.40;;;;;;;1.74;66.51;100446.88;5091839;28;20063;-48
2023/02/13 05:26:44;;;;;;;84.38;49.05;;;;;;;1.75;66.66;100451.97;5090374;28;20028;-46
2023/02/13 05:32:06;;;;;;;83.38;49.00;;;;;;;1.99;66.79;100453.88;5091808;28;20127;-48
2023/02/13 05:34:39;;;;;;;75.30;43.70;;;;;;;2.01;66.50;100457.19;5091621;28;20016;-46
2023/02/13 05:37:06;;;;;;;72.47;41.78;;;;;;;1.97;65.93;100453.13;5095939;28;20028;-46
2023/02/13 05:39:32;;;;;;;73.13;41.15;;;;;;;1.92;66.28;100455.22;5095215;28;20055;-47
2023/02/13 05:42:03;;;;;;;80.40;43.78;;;;;;;1.92;66.01;100448.28;5094237;28;20110;-48
2023/02/13 05:44:31;;;;;;;79.75;45.95;;;;;;;1.98;65.86;100447.03;5095586;28;20106;-47
2023/02/13 05:46:58;;;;;;;79.65;46.33;;;;;;;1.94;65.89;100458.53;5094075;28;20028;-46
2023/02/13 05:49:25;;;;;;;77.28;44.42;;;;;;;1.95;65.97;100458.44;5095473;28;20111;-46
2023/02/13 05:51:51;;;;;;;73.05;44.78;;;;;;;1.94;65.54;100461.94;5095329;28;20520;-46
2023/02/13 05:54:20;;;;;;;86.13;53.53;;;;;;;2.01;66.03;100454.59;5095347;28;20059;-46
2023/02/13 05:56:46;;;;;;;128.82;84.30;;;;;;;2.04;65.97;100462.16;5095537;28;20043;-46
2023/02/13 05:59:13;;;;;;;92.07;54.25;;;;;;;2.08;65.64;100461.03;5095310;28;20028;-46
2023/02/13 06:01:41;;;;;;;93.53;64.10;;;;;;;2.00;65.46;100465.91;5095152;28;20016;-46
2023/02/13 06:04:08;;;;;;;106.60;80.65;;;;;;;1.91;65.23;100466.47;5094155;28;20032;-46
2023/02/13 06:06:34;;;;;;;117.82;86.05;;;;;;;1.92;65.81;100461.22;5076872;28;20047;-46
2023/02/13 06:09:02;;;;;;;124.70;96.32;;;;;;;2.08;65.92;100465.41;5095078;28;20036;-46
2023/02/13 06:11:29;;;;;;;110.93;91.20;;;;;;;2.19;65.88;100458.56;5095046;28;20020;-46
2023/02/13 06:13:55;;;;;;;92.80;70.07;;;;;;;2.19;64.87;100450.81;5093578;28;20032;-46
2023/02/13 06:16:22;;;;;;;90.68;61.47;;;;;;;2.11;64.67;100447.03;5094992;28;20023;-46
2023/02/13 06:18:51;;;;;;;94.50;63.60;;;;;;;1.99;64.64;100456.44;5093881;28;20076;-46
2023/02/13 06:21:18;;;;;;;105.72;76.60;;;;;;;2.01;65.39;100452.00;5093561;28;20023;-46
2023/02/13 06:23:45;;;;;;;68.22;46.17;;;;;;;2.04;64.95;100457.00;5094839;28;20032;-46
2023/02/13 06:26:12;;;;;;;62.35;38.53;;;;;;;2.07;64.87;100450.78;5093432;28;20024;-46
2023/02/13 06:28:38;;;;;;;73.75;45.20;;;;;;;2.03;64.52;100454.50;5094772;28;20032;-46
2023/02/13 06:31:05;;;;;;;74.07;34.50;;;;;;;2.07;64.85;100467.13;5093346;28;20520;-46
2023/02/13 06:33:38;;;;;;;73.30;44.60;;;;;;;2.08;64.61;100467.97;5093262;28;20501;-46
2023/02/13 06:36:20;;;;;;;78.50;45.97;;;;;;;2.13;64.78;100471.94;5094443;28;20024;-47
2023/02/13 06:38:46;;;;;;;74.35;43.60;;;;;;;2.31;65.20;100474.22;5093135;28;20024;-47
2023/02/13 06:41:16;;;;;;;53.03;32.50;;;;;;;2.41;64.30;100467.47;5093201;28;20411;-47
2023/02/13 06:43:42;;;;;;;58.47;31.20;;;;;;;2.51;63.90;100476.28;5094453;28;20024;-47
2023/02/13 06:46:09;;;;;;;54.65;32.97;;;;;;;2.55;63.76;100482.91;5094247;28;20024;-46
2023/02/13 06:48:36;;;;;;;56.35;32.30;;;;;;;2.56;63.40;100487.19;5093063;28;20058;-46
2023/02/13 06:51:04;;;;;;;60.30;34.38;;;;;;;2.55;63.75;100485.50;5093006;28;20035;-46
2023/02/13 06:53:30;;;;;;;70.13;38.40;;;;;;;2.62;63.39;100485.06;5094516;28;20110;-47
2023/02/13 06:55:57;;;;;;;87.20;43.33;;;;;;;2.72;64.00;100488.72;5094232;28;20024;-46
2023/02/13 06:58:25;;;;;;;110.10;49.25;;;;;;;2.95;64.53;100487.94;5092954;28;20032;-46
2023/02/13 07:00:52;;;;;;;100.18;48.42;;;;;;;3.38;64.93;100487.53;5094043;28;20027;-46
2023/02/13 07:03:20;;;;;;;86.50;46.33;;;;;;;3.94;65.08;100486.13;5094086;28;20027;-46
2023/02/13 07:05:50;;;;;;;63.45;38.45;;;;;;;4.67;63.27;100486.72;5094019;28;20685;-46
2023/02/13 07:08:19;;;;;;;58.25;36.80;;;;;;;5.27;61.25;100488.13;5094228;28;20040;-46
2023/02/13 07:10:46;;;;;;;85.03;39.70;;;;;;;5.89;59.88;100488.38;5092636;28;20038;-46
2023/02/13 07:13:13;;;;;;;60.75;37.75;;;;;;;6.49;58.28;100489.50;5075750;28;20074;-46
2023/02/13 07:15:40;;;;;;;80.82;44.63;;;;;;;7.19;56.61;100485.25;5092800;28;20120;-47
2023/02/13 07:18:14;;;;;;;87.57;49.72;;;;;;;7.95;55.87;100483.81;5093816;28;20016;-48
2023/02/13 07:20:42;;;;;;;218.25;89.00;;;;;;;8.65;54.35;100488.78;5093671;28;20031;-47
2023/02/13 07:23:10;;;;;;;119.95;56.97;;;;;;;9.19;52.26;100477.50;5093756;28;20077;-47
2023/02/13 07:25:37;;;;;;;79.53;46.30;;;;;;;9.60;50.93;100490.19;5092353;28;20085;-46
2023/02/13 07:28:05;;;;;;;65.05;44.70;;;;;;;9.65;49.55;100495.00;5093610;28;20568;-47
2023/02/13 07:30:33;;;;;;;80.00;46.03;;;;;;;9.60;49.31;100496.25;5093524;28;20077;-47
2023/02/13 07:33:04;;;;;;;63.10;42.70;;;;;;;9.89;49.21;100497.00;5092074;28;20020;-47
2023/02/13 07:35:31;;;;;;;69.03;42.35;;;;;;;10.27;47.07;100497.63;5093435;28;20028;-47
2023/02/13 07:37:59;;;;;;;75.28;45.15;;;;;;;10.64;46.73;100497.38;5093373;28;20562;-47
2023/02/13 07:40:27;;;;;;;74.50;41.65;;;;;;;11.16;46.12;100499.09;5092917;28;20041;-47
2023/02/13 07:42:59;;;;;;;71.35;42.97;;;;;;;11.44;44.66;100491.78;5093603;28;20421;-47
2023/02/13 07:45:26;;;;;;;88.18;42.13;;;;;;;11.60;43.56;100491.00;5093534;28;20439;-47
2023/02/13 07:47:56;;;;;;;72.68;41.83;;;;;;;11.87;42.66;100491.66;5093146;28;20035;-47
2023/02/13 07:50:23;;;;;;;61.30;40.13;;;;;;;11.53;40.92;100498.72;5093116;28;20028;-47
2023/02/13 07:52:55;;;;;;;84.13;43.33;;;;;;;10.51;41.99;100505.69;5093027;28;20416;-47
2023/02/13 07:55:22;;;;;;;75.05;42.53;;;;;;;9.59;43.84;100510.31;5093076;28;20020;-47
2023/02/13 07:57:50;;;;;;;61.55;39.83;;;;;;;9.61;44.66;100515.44;5091091;28;20460;-47
2023/02/13 08:00:18;;;;;;;76.32;42.28;;;;;;;10.08;44.47;100507.34;5092966;28;20031;-47
2023/02/13 08:02:45;;;;;;;92.57;44.40;;;;;;;10.06;44.08;100517.16;5091595;28;20039;-47
2023/02/13 08:05:29;;;;;;;81.07;41.35;;;;;;;10.19;43.84;100507.06;5091463;28;20462;-47
2023/02/13 08:07:56;;;;;;;90.68;43.20;;;;;;;10.55;43.35;100519.34;5092824;28;20052;-48
2023/02/13 08:13:21;;;;;;;76.22;42.10;;;;;;;11.27;43.60;100513.75;5092823;28;20114;-48
2023/02/13 08:15:47;;;;;;;70.30;41.75;;;;;;;12.04;42.23;100505.69;5092638;28;20024;-47
2023/02/13 08:18:14;;;;;;;67.65;41.85;;;;;;;12.62;40.89;100514.34;5091308;28;20130;-47
2023/02/13 08:20:51;;;;;;;67.07;41.72;;;;;;;13.12;40.62;100503.47;5091122;28;20024;-48
2023/02/13 08:23:35;;;;;;;63.17;40.80;;;;;;;13.63;39.97;100499.59;5092573;28;20409;-48
2023/02/13 08:26:17;;;;;;;80.95;43.53;;;;;;;14.17;38.76;100502.13;5092500;28;20103;-49
2023/02/13 08:28:46;;;;;;;74.47;42.25;;;;;;;14.75;37.63;100497.13;5092515;28;20048;-48
2023/02/13 08:31:13;;;;;;;72.88;41.13;;;;;;;15.50;36.18;100490.66;5092493;28;20099;-45
2023/02/13 08:33:42;;;;;;;79.47;42.65;;;;;;;16.14;35.14;100495.16;5092276;28;20077;-46
2023/02/13 08:36:10;;;;;;;69.43;41.55;;;;;;;16.75;34.15;100493.69;5091019;28;20081;-46
2023/02/13 08:38:37;;;;;;;67.47;41.42;;;;;;;17.25;32.92;100494.34;5090945;28;20035;-46
2023/02/13 08:41:05;;;;;;;78.00;42.97;;;;;;;17.67;32.21;100497.72;5090573;28;20091;-46
2023/02/13 08:43:33;;;;;;;66.78;41.88;;;;;;;18.05;32.17;100498.97;5090911;28;20395;-46
2023/02/13 08:46:00;;;;;;;62.97;39.15;;;;;;;18.23;31.07;100485.91;5092144;28;20035;-46
2023/02/13 08:48:28;;;;;;;62.95;42.17;;;;;;;18.59;30.98;100494.41;5090919;28;20432;-46
2023/02/13 08:50:55;;;;;;;70.45;43.63;;;;;;;18.99;29.64;100489.81;5092093;28;20128;-46
2023/02/13 08:53:23;;;;;;;57.15;38.67;;;;;;;19.11;29.41;100482.78;5090670;28;20020;-46
2023/02/13 08:55:57;;;;;;;66.10;39.92;;;;;;;19.62;28.96;100486.41;5091957;28;20089;-46
2023/02/13 08:58:24;;;;;;;73.68;40.85;;;;;;;20.10;28.09;100483.19;5091978;28;20460;-46
2023/02/13 09:00:51;;;;;;;85.80;43.25;;;;;;;20.68;27.54;100483.88;5092007;28;20016;-46
2023/02/13 09:03:18;;;;;;;66.10;41.90;;;;;;;20.93;27.08;100481.13;5090671;28;20020;-46
2023/02/13 09:05:46;;;;;;;58.30;39.17;;;;;;;21.31;26.82;100472.81;5090628;28;20024;-46
2023/02/13 09:08:13;;;;;;;55.35;41.20;;;;;;;21.81;26.31;100473.53;5091578;28;20020;-46
2023/02/13 09:10:42;;;;;;;56.10;39.92;;;;;;;22.36;25.62;100475.91;5091236;28;20024;-46
2023/02/13 09:13:09;;;;;;;57.22;41.58;;;;;;;22.67;25.15;100479.22;5090506;28;20031;-47
2023/02/13 09:15:40;;;;;;;52.22;41.28;;;;;;;22.91;24.95;100483.47;5091840;28;20550;-46
2023/02/13 09:18:08;;;;;;;56.75;41.28;;;;;;;23.02;24.43;100479.16;5091839;28;20074;-46
2023/02/13 09:20:34;;;;;;;46.85;39.63;;;;;;;23.16;23.87;100478.88;5092022;28;20028;-46
2023/02/13 09:23:01;;;;;;;48.97;38.78;;;;;;;23.35;23.58;100485.66;5090775;28;20393;-46
2023/02/13 09:25:28;;;;;;;58.00;37.83;;;;;;;23.55;23.52;100474.50;5091767;28;20515;-46
2023/02/13 09:27:58;;;;;;;45.85;36.05;;;;;;;23.68;23.63;100476.03;5091691;28;20397;-46
2023/02/13 09:30:27;;;;;;;49.50;36.38;;;;;;;23.77;23.30;100484.50;5091725;28;20031;-46
2023/02/13 09:32:55;;;;;;;48.45;37.28;;;;;;;24.02;23.17;100470.69;5091488;28;20035;-46
2023/02/13 09:35:23;;;;;;;47.75;34.03;;;;;;;24.20;22.72;100483.03;5091619;28;20047;-46
2023/02/13 09:37:50;;;;;;;45.88;36.05;;;;;;;24.11;22.63;100470.03;5091870;28;20035;-45
2023/02/13 09:40:34;;;;;;;43.42;35.17;;;;;;;24.34;22.74;100468.19;5091194;28;20521;-47
2023/02/13 09:43:58;;;;;;;47.28;35.45;;;;;;;24.70;22.41;100477.56;5090323;28;20028;-47
2023/02/13 09:46:43;;;;;;;39.95;33.05;;;;;;;25.13;22.26;100464.31;5091459;28;20036;-46
2023/02/13 09:49:18;;;;;;;;;;;;;;;25.61;22.82;100475.28;5073862;28;20028;-46
2023/02/13 09:51:56;;;;;;;41.53;34.85;;;;;;;25.69;21.85;100472.13;5091525;28;19916;-46
2023/02/13 09:54:25;;;;;;;40.60;34.70;;;;;;;25.64;21.82;100472.91;5091548;28;20036;-47
2023/02/13 09:57:17;;;;;;;45.47;35.70;;;;;;;25.23;22.21;100475.25;5090114;28;20536;-46
2023/02/13 10:00:13;;;;;;;42.97;35.72;;;;;;;25.08;22.45;100475.03;5091420;28;20028;-46
2023/02/13 10:03:13;;;;;;;38.20;32.90;;;;;;;25.67;22.10;100477.75;5091473;28;20458;-47
2023/02/13 10:05:56;;;;;;;37.55;32.70;;;;;;;25.95;20.98;100483.13;5089982;28;20024;-46
2023/02/13 10:08:42;;;;;;;40.45;34.60;;;;;;;24.63;21.81;100487.69;5091289;28;20101;-46
2023/02/13 10:11:24;;;;;;;44.33;36.47;;;;;;;22.96;23.75;100496.16;5091413;28;20020;-46
2023/02/13 10:14:21;;;;;;;41.50;34.47;;;;;;;21.57;24.90;100494.03;5091323;28;20020;-46
2023/02/13 10:16:58;;;;;;;53.08;36.70;;;;;;;20.48;27.10;100500.91;5091244;28;20024;-46
2023/02/13 10:20:03;;;;;;;46.00;34.67;;;;;;;20.45;27.72;100498.66;5089957;28;20032;-46
2023/02/13 10:23:17;;;;;;;64.80;36.90;;;;;;;20.58;27.55;100489.69;5094869;28;20031;-46
2023/02/13 10:26:05;;;;;;;47.10;33.85;;;;;;;21.92;26.56;100488.78;5094718;28;20510;-46
2023/02/13 10:28:45;;;;;;;;;;;;;;;;;;;;;
2023/02/13 10:31:38;;;;;;;44.35;30.80;;;;;;;24.11;23.92;100472.72;5094766;28;20030;-46
2023/02/13 10:34:16;;;;;;;36.53;31.02;;;;;;;25.12;22.41;100471.59;5090518;28;20463;-46
2023/02/13 10:36:47;;;;;;;39.15;30.08;;;;;;;25.96;21.86;100480.19;5094544;28;20020;-46
2023/02/13 10:39:29;;;;;;;43.72;28.98;;;;;;;26.37;20.97;100475.03;5094268;28;20044;-46
2023/02/13 10:42:06;;;;;;;37.05;29.17;;;;;;;26.82;20.78;100467.44;5094458;28;20111;-47
2023/02/13 10:44:52;;;;;;;39.65;29.63;;;;;;;26.97;20.22;100467.50;5094555;28;20027;-46
2023/02/13 10:47:55;;;;;;;40.88;29.88;;;;;;;26.66;20.25;100453.94;5094455;28;20507;-47
2023/02/13 10:50:50;;;;;;;36.97;27.33;;;;;;;26.59;20.73;100456.06;5015238;28;20033;-46
2023/02/13 10:53:29;;;;;;;34.25;26.40;;;;;;;26.69;20.31;100452.59;5015187;28;20530;-46
2023/02/13 10:56:51;;;;;;;36.28;28.52;;;;;;;26.53;20.32;100449.00;5031914;28;20064;-46
2023/02/13 10:59:56;;;;;;;36.35;27.35;;;;;;;26.20;20.69;100445.63;5031642;28;20103;-47
2023/02/13 11:02:41;;;;;;;30.10;25.65;;;;;;;25.91;21.13;100453.22;5031798;28;20024;-46
2023/02/13 11:05:23;;;;;;;40.92;27.00;;;;;;;25.69;21.07;100445.25;5031751;28;20099;-46
2023/02/13 11:07:50;;;;;;;38.72;27.33;;;;;;;25.25;21.54;100440.84;5031642;28;20037;-46
2023/02/13 11:10:21;;;;;;;54.08;27.67;;;;;;;24.99;22.31;100437.06;5031623;28;20029;-46
2023/02/13 11:12:49;;;;;;;54.00;27.17;;;;;;;25.19;22.44;100443.69;5031493;28;20042;-46
2023/02/13 11:15:24;;;;;;;41.90;26.05;;;;;;;25.46;22.01;100438.34;5031434;28;20040;-46
2023/02/13 11:17:59;;;;;;;33.88;26.92;;;;;;;25.96;22.57;100428.22;5031467;28;20037;-46
2023/02/13 11:20:37;;;;;;;43.30;27.38;;;;;;;26.66;21.85;100437.78;5031480;28;20034;-47
2023/02/13 11:23:30;;;;;;;39.22;25.80;;;;;;;27.36;20.92;100432.00;5014801;28;20041;-47
2023/02/13 11:26:03;;;;;;;35.60;25.60;;;;;;;27.67;20.54;100424.72;5062215;28;20040;-46
2023/02/13 11:28:38;;;;;;;30.02;24.40;;;;;;;28.31;19.31;100417.00;5093619;28;20162;-46
2023/02/13 11:31:32;;;;;;;;;;;;;;;28.88;19.53;100414.88;5093978;28;20032;-46
2023/02/13 11:34:28;;;;;;;32.92;23.85;;;;;;;29.05;19.04;100414.50;5091122;28;20064;-47
2023/02/13 11:37:14;;;;;;;33.17;25.38;;;;;;;28.72;18.83;100416.88;5093545;28;20102;-47
2023/02/13 11:39:42;;;;;;;29.35;24.60;;;;;;;28.55;18.64;100419.09;5091776;28;20143;-46
2023/02/13 11:42:35;;;;;;;35.70;23.77;;;;;;;28.44;19.39;100407.53;5093380;28;20062;-47
2023/02/13 11:45:28;;;;;;;29.40;24.00;;;;;;;28.41;19.39;100413.47;5092053;28;20031;-47
2023/02/13 11:47:56;;;;;;;26.40;23.63;;;;;;;28.55;18.88;100411.81;5089980;28;20040;-47
2023/02/13 11:50:37;;;;;;;30.70;23.77;;;;;;;28.66;19.05;100413.38;5093276;28;20031;-47
2023/02/13 11:53:06;;;;;;;29.13;23.15;;;;;;;28.58;18.57;100405.06;5093240;28;20492;-47
2023/02/13 11:55:41;;;;;;;25.98;22.13;;;;;;;28.44;19.00;100405.63;5093064;28;20020;-47
2023/02/13 11:58:13;;;;;;;31.45;22.85;;;;;;;28.18;19.06;100406.81;5093414;28;20032;-47
2023/02/13 12:00:41;;;;;;;25.38;21.42;;;;;;;28.16;19.01;100393.59;5091741;28;20027;-46
2023/02/13 12:03:37;;;;;;;29.60;21.95;;;;;;;28.23;19.05;100385.19;5092916;28;20405;-47
2023/02/13 12:06:12;;;;;;;28.63;21.35;;;;;;;28.29;18.94;100384.09;5090980;28;20040;-47
2023/02/13 12:08:45;;;;;;;26.60;20.27;;;;;;;28.43;18.83;100382.41;5091580;28;20027;-47
2023/02/13 12:11:51;;;;;;;26.02;20.88;;;;;;;28.63;18.66;100378.00;5092840;28;20028;-47
2023/02/13 12:14:56;;;;;;;26.42;20.90;;;;;;;28.03;18.81;100373.41;5092623;28;20066;-47
2023/02/13 12:17:44;;;;;;;15.52;13.35;;;;;;;27.85;17.86;100376.66;5092752;28;20062;-47
2023/02/13 12:20:26;;;;;;;23.85;11.90;;;;;;;27.43;17.60;100375.13;5091296;28;20386;-47
2023/02/13 12:23:36;;;;;;;14.82;6.55;;;;;;;26.64;15.77;100367.22;5074656;28;20397;-47
2023/02/13 12:26:48;;;;;;;8.85;6.50;;;;;;;25.42;16.48;100370.84;5092539;28;20024;-47
2023/02/13 12:29:29;;;;;;;12.25;6.90;;;;;;;25.00;18.21;100362.66;5091253;28;20471;-47
2023/02/13 12:32:33;;;;;;;8.75;7.18;;;;;;;25.06;17.46;100372.41;5092341;28;20566;-46
2023/02/13 12:35:23;;;;;;;15.48;7.47;;;;;;;24.98;17.12;100364.78;5092350;28;20032;-46
2023/02/13 12:38:21;;;;;;;10.57;6.43;;;;;;;24.67;17.36;100367.16;5092431;28;20111;-46
2023/02/13 12:40:58;;;;;;;11.27;6.80;;;;;;;24.26;17.61;100369.34;5090574;28;20417;-46
2023/02/13 12:43:53;;;;;;;12.05;6.90;;;;;;;24.18;17.41;100356.38;5091996;28;20036;-46
2023/02/13 12:46:51;;;;;;;;;;;;;;;23.83;18.07;100357.53;5091398;28;20077;-46
2023/02/13 12:49:24;;;;;;;14.20;8.07;;;;;;;23.53;18.40;100356.00;5082595;28;19911;-46
2023/02/13 12:52:10;;;;;;;9.48;7.03;;;;;;;23.35;18.23;100357.06;5090868;28;20036;-46
2023/02/13 12:54:55;;;;;;;13.50;7.75;;;;;;;23.46;19.35;100355.34;5092101;28;20497;-46
2023/02/13 13:01:26;;;;;;;13.80;8.23;;;;;;;23.73;18.40;100350.13;5091917;28;20081;-47
2023/02/13 13:04:31;;;;;;;12.13;8.52;;;;;;;23.82;18.33;100339.81;5091932;28;20024;-46
2023/02/13 13:07:17;;;;;;;14.88;9.02;;;;;;;24.21;19.36;100337.13;5091761;28;20032;-47
2023/02/13 13:10:23;;;;;;;11.40;7.80;;;;;;;24.47;18.18;100335.53;5091936;28;20107;-46
2023/02/13 13:13:29;;;;;;;16.75;8.60;;;;;;;24.76;17.82;100329.94;5091807;28;20020;-47
2023/02/13 13:16:51;;;;;;;13.02;8.38;;;;;;;24.54;17.99;100317.38;5091904;28;20028;-47